createdAt,value
2022-12-26T00:00:10.476Z,99.86
2022-12-26T00:01:10.403Z,99.99
2022-12-26T00:02:10.474Z,99.99
2022-12-26T00:03:10.446Z,99.91
2022-12-26T00:04:51.927Z,99.99
2022-12-26T00:05:11.354Z,99.99
2022-12-26T00:06:10.340Z,99.99
2022-12-26T00:07:10.342Z,99.99
2022-12-26T00:08:10.289Z,99.99
2022-12-26T00:09:10.356Z,99.99
2022-12-26T00:10:10.335Z,99.99
2022-12-26T00:11:10.414Z,99.99
2022-12-26T00:12:10.310Z,99.99
2022-12-26T00:13:38.977Z,99.99
2022-12-26T00:14:11.291Z,99.99
2022-12-26T00:15:10.423Z,99.99
2022-12-26T00:16:10.425Z,99.99
2022-12-26T00:17:10.198Z,99.99
2022-12-26T00:18:10.183Z,99.99
2022-12-26T00:19:10.177Z,99.99
2022-12-26T00:20:10.199Z,99.99
2022-12-26T00:21:10.150Z,99.96
2022-12-26T00:22:10.233Z,99.99
2022-12-26T00:23:10.145Z,99.99
2022-12-26T00:24:10.155Z,99.99
2022-12-26T00:25:10.190Z,99.99
2022-12-26T00:26:10.131Z,99.99
2022-12-26T00:27:10.229Z,99.99
2022-12-26T00:28:10.115Z,99.99
2022-12-26T00:29:10.208Z,99.99
2022-12-26T00:30:10.131Z,99.99
2022-12-26T00:31:10.166Z,99.99
2022-12-26T00:32:10.089Z,99.99
2022-12-26T00:33:10.135Z,99.99
2022-12-26T00:34:10.076Z,99.99
2022-12-26T00:35:10.095Z,99.99
2022-12-26T00:36:10.105Z,99.99
2022-12-26T00:37:10.142Z,99.99
2022-12-26T00:38:10.201Z,99.99
2022-12-26T00:39:10.111Z,99.99
2022-12-26T00:40:10.161Z,99.99
2022-12-26T00:41:10.103Z,99.91
2022-12-26T00:42:10.096Z,99.40
2022-12-26T00:43:10.093Z,99.91
2022-12-26T00:44:10.162Z,99.70
2022-12-26T00:45:10.105Z,99.66
2022-12-26T00:46:10.038Z,99.35
2022-12-26T00:47:10.127Z,99.40
2022-12-26T00:48:10.066Z,99.55
2022-12-26T00:49:10.317Z,99.40
2022-12-26T00:50:13.633Z,98.78
2022-12-26T00:51:10.950Z,99.35
2022-12-26T00:52:10.028Z,99.25
2022-12-26T00:53:10.059Z,98.94
2022-12-26T00:54:10.004Z,99.29
2022-12-26T00:55:10.058Z,99.25
2022-12-26T00:56:10.015Z,99.09
2022-12-26T00:57:10.003Z,99.40
2022-12-26T00:58:09.989Z,99.55
2022-12-26T00:59:10.024Z,99.40
2022-12-26T01:00:10.076Z,99.60
2022-12-26T01:01:10.174Z,99.19
2022-12-26T01:02:10.243Z,99.60
2022-12-26T01:03:09.956Z,98.99
2022-12-26T01:04:09.938Z,98.99
2022-12-26T01:05:09.907Z,98.74
2022-12-26T01:06:09.967Z,98.78
2022-12-26T01:07:09.903Z,99.09
2022-12-26T01:08:21.561Z,98.99
2022-12-26T01:09:10.845Z,98.94
2022-12-26T01:10:09.902Z,99.60
2022-12-26T01:11:09.953Z,99.50
2022-12-26T01:12:09.881Z,99.19
2022-12-26T01:13:09.933Z,99.40
2022-12-26T01:14:09.857Z,99.35
2022-12-26T01:15:09.927Z,98.99
2022-12-26T01:16:09.936Z,98.83
2022-12-26T01:17:09.889Z,99.09
2022-12-26T01:18:09.891Z,99.40
2022-12-26T01:19:09.825Z,98.58
2022-12-26T01:20:09.873Z,98.94
2022-12-26T01:21:09.828Z,98.99
2022-12-26T01:22:09.902Z,98.43
2022-12-26T01:23:09.801Z,98.22
2022-12-26T01:24:09.875Z,98.07
2022-12-26T01:25:09.780Z,98.43
2022-12-26T01:26:16.574Z,98.02
2022-12-26T01:27:10.817Z,98.33
2022-12-26T01:28:09.765Z,98.33
2022-12-26T01:29:09.773Z,98.63
2022-12-26T01:30:09.720Z,98.33
2022-12-26T01:31:09.782Z,98.07
2022-12-26T01:32:09.783Z,97.97
2022-12-26T01:33:09.815Z,97.97
2022-12-26T01:34:09.693Z,97.77
2022-12-26T01:35:09.682Z,97.66
2022-12-26T01:36:09.624Z,97.66
2022-12-26T01:37:09.619Z,97.87
2022-12-26T01:38:09.633Z,97.97
2022-12-26T01:39:10.606Z,97.46
2022-12-26T01:40:09.620Z,97.92
2022-12-26T01:41:09.619Z,97.97
2022-12-26T01:42:09.629Z,97.92
2022-12-26T01:43:09.600Z,97.97
2022-12-26T01:44:09.603Z,98.07
2022-12-26T01:45:09.637Z,98.18
2022-12-26T01:46:09.721Z,97.62
2022-12-26T01:47:09.559Z,98.28
2022-12-26T01:48:09.565Z,98.18
2022-12-26T01:49:09.576Z,97.97
2022-12-26T01:50:09.637Z,97.62
2022-12-26T01:51:09.647Z,97.82
2022-12-26T01:52:09.602Z,97.62
2022-12-26T01:53:09.591Z,97.97
2022-12-26T01:54:37.713Z,97.52
2022-12-26T01:55:10.978Z,97.77
2022-12-26T01:56:09.604Z,97.31
2022-12-26T01:57:09.550Z,97.82
2022-12-26T01:58:09.539Z,97.82
2022-12-26T01:59:09.527Z,97.52
2022-12-26T02:00:09.578Z,97.41
2022-12-26T02:01:09.577Z,97.31
2022-12-26T02:02:09.847Z,97.62
2022-12-26T02:03:09.616Z,97.52
2022-12-26T02:04:09.559Z,97.52
2022-12-26T02:05:09.507Z,97.21
2022-12-26T02:06:09.585Z,97.00
2022-12-26T02:07:09.451Z,97.21
2022-12-26T02:08:09.398Z,97.27
2022-12-26T02:09:09.459Z,96.96
2022-12-26T02:10:09.463Z,97.06
2022-12-26T02:11:09.527Z,96.96
2022-12-26T02:12:35.060Z,97.06
2022-12-26T02:13:10.379Z,96.66
2022-12-26T02:14:09.425Z,96.45
2022-12-26T02:15:09.417Z,96.80
2022-12-26T02:16:09.459Z,96.45
2022-12-26T02:17:10.328Z,96.55
2022-12-26T02:18:09.387Z,96.86
2022-12-26T02:19:09.369Z,96.75
2022-12-26T02:20:09.403Z,96.86
2022-12-26T02:21:09.409Z,96.39
2022-12-26T02:22:09.419Z,96.25
2022-12-26T02:23:09.389Z,96.29
2022-12-26T02:24:09.282Z,96.49
2022-12-26T02:25:09.292Z,96.25
2022-12-26T02:26:09.230Z,96.39
2022-12-26T02:27:09.237Z,95.98
2022-12-26T02:28:09.297Z,96.19
2022-12-26T02:29:09.271Z,96.49
2022-12-26T02:30:09.248Z,96.29
2022-12-26T02:31:09.250Z,96.59
2022-12-26T02:32:09.251Z,96.59
2022-12-26T02:33:09.238Z,96.59
2022-12-26T02:34:09.197Z,96.39
2022-12-26T02:35:09.222Z,96.29
2022-12-26T02:36:09.218Z,96.49
2022-12-26T02:37:09.302Z,96.64
2022-12-26T02:38:09.356Z,96.84
2022-12-26T02:39:44.095Z,97.25
2022-12-26T02:40:10.236Z,97.15
2022-12-26T02:41:09.274Z,97.15
2022-12-26T02:42:09.232Z,97.05
2022-12-26T02:43:09.224Z,97.05
2022-12-26T02:44:09.244Z,96.95
2022-12-26T02:45:09.219Z,97.09
2022-12-26T02:46:09.302Z,96.99
2022-12-26T02:47:09.210Z,96.99
2022-12-26T02:48:09.216Z,96.99
2022-12-26T02:49:09.241Z,96.89
2022-12-26T02:50:09.245Z,97.50
2022-12-26T02:51:09.172Z,97.81
2022-12-26T02:52:09.216Z,97.91
2022-12-26T02:53:09.178Z,98.02
2022-12-26T02:54:09.211Z,97.81
2022-12-26T02:55:09.196Z,97.91
2022-12-26T02:56:09.156Z,98.02
2022-12-26T02:57:09.150Z,97.86
2022-12-26T02:58:09.107Z,98.07
2022-12-26T02:59:09.097Z,98.12
2022-12-26T03:00:09.372Z,98.07
2022-12-26T03:01:09.259Z,97.96
2022-12-26T03:02:09.178Z,98.33
2022-12-26T03:03:09.158Z,98.33
2022-12-26T03:04:09.102Z,98.37
2022-12-26T03:05:09.059Z,98.27
2022-12-26T03:06:09.132Z,98.22
2022-12-26T03:07:09.074Z,98.63
2022-12-26T03:08:08.975Z,98.12
2022-12-26T03:09:09.069Z,98.02
2022-12-26T03:10:09.029Z,98.12
2022-12-26T03:11:09.162Z,97.91
2022-12-26T03:12:09.031Z,97.91
2022-12-26T03:13:09.053Z,97.96
2022-12-26T03:14:08.944Z,97.86
2022-12-26T03:15:08.932Z,97.86
2022-12-26T03:16:08.908Z,98.02
2022-12-26T03:17:09.040Z,97.75
2022-12-26T03:18:08.901Z,97.96
2022-12-26T03:19:08.945Z,98.07
2022-12-26T03:20:08.872Z,98.07
2022-12-26T03:21:08.891Z,98.22
2022-12-26T03:22:08.927Z,97.86
2022-12-26T03:23:08.864Z,98.16
2022-12-26T03:24:08.851Z,98.07
2022-12-26T03:25:08.858Z,98.47
2022-12-26T03:26:08.938Z,98.22
2022-12-26T03:27:08.923Z,98.22
2022-12-26T03:28:08.947Z,98.53
2022-12-26T03:29:08.884Z,98.68
2022-12-26T03:30:08.930Z,98.37
2022-12-26T03:31:08.963Z,98.33
2022-12-26T03:32:08.932Z,98.37
2022-12-26T03:33:08.935Z,98.53
2022-12-26T03:34:08.885Z,98.58
2022-12-26T03:35:08.870Z,98.12
2022-12-26T03:36:08.903Z,98.12
2022-12-26T03:37:08.849Z,98.12
2022-12-26T03:38:08.905Z,98.02
2022-12-26T03:39:08.878Z,98.22
2022-12-26T03:40:08.798Z,98.37
2022-12-26T03:41:08.808Z,98.47
2022-12-26T03:42:08.828Z,98.27
2022-12-26T03:43:08.827Z,98.16
2022-12-26T03:44:08.902Z,98.78
2022-12-26T03:45:08.781Z,98.47
2022-12-26T03:46:08.808Z,98.47
2022-12-26T03:47:08.744Z,98.37
2022-12-26T03:48:08.764Z,98.27
2022-12-26T03:49:08.749Z,98.37
2022-12-26T03:50:08.801Z,98.68
2022-12-26T03:51:08.745Z,98.58
2022-12-26T03:52:08.724Z,98.78
2022-12-26T03:53:08.733Z,98.78
2022-12-26T03:54:08.757Z,98.58
2022-12-26T03:55:08.808Z,98.47
2022-12-26T03:56:08.715Z,98.78
2022-12-26T03:57:08.732Z,98.27
2022-12-26T03:58:08.674Z,98.47
2022-12-26T03:59:08.849Z,98.37
2022-12-26T04:00:08.702Z,98.68
2022-12-26T04:01:09.034Z,98.27
2022-12-26T04:02:08.786Z,98.16
2022-12-26T04:03:08.709Z,98.88
2022-12-26T04:04:08.747Z,99.29
2022-12-26T04:05:08.666Z,99.19
2022-12-26T04:06:49.503Z,99.50
2022-12-26T04:07:09.924Z,98.88
2022-12-26T04:08:11.138Z,99.04
2022-12-26T04:09:09.640Z,99.99
2022-12-26T04:10:08.563Z,99.99
2022-12-26T04:11:08.540Z,99.99
2022-12-26T04:12:08.610Z,99.96
2022-12-26T04:13:08.516Z,99.99
2022-12-26T04:14:08.532Z,99.96
2022-12-26T04:15:08.542Z,99.99
2022-12-26T04:16:08.606Z,99.99
2022-12-26T04:17:08.534Z,99.99
2022-12-26T04:18:08.489Z,99.99
2022-12-26T04:19:08.483Z,99.99
2022-12-26T04:20:08.478Z,99.99
2022-12-26T04:21:08.547Z,99.99
2022-12-26T04:22:08.621Z,99.99
2022-12-26T04:23:08.551Z,99.99
2022-12-26T04:24:08.581Z,99.99
2022-12-26T04:25:08.563Z,99.99
2022-12-26T04:26:08.493Z,99.99
2022-12-26T04:27:09.501Z,99.99
2022-12-26T04:28:08.489Z,99.99
2022-12-26T04:29:08.501Z,99.99
2022-12-26T04:30:08.495Z,99.99
2022-12-26T04:31:08.481Z,99.99
2022-12-26T04:32:08.470Z,99.99
2022-12-26T04:33:08.532Z,99.99
2022-12-26T04:34:08.450Z,99.99
2022-12-26T04:35:08.455Z,99.99
2022-12-26T04:36:08.450Z,99.99
2022-12-26T04:37:08.461Z,99.99
2022-12-26T04:38:08.460Z,99.99
2022-12-26T04:39:08.444Z,99.99
2022-12-26T04:40:08.385Z,99.99
2022-12-26T04:41:08.413Z,99.99
2022-12-26T04:42:08.361Z,99.99
2022-12-26T04:43:47.357Z,99.99
2022-12-26T04:44:09.348Z,99.99
2022-12-26T04:45:08.400Z,99.99
2022-12-26T04:46:08.439Z,99.99
2022-12-26T04:47:08.431Z,99.99
2022-12-26T04:48:08.367Z,99.99
2022-12-26T04:49:08.371Z,99.99
2022-12-26T04:50:08.353Z,99.99
2022-12-26T04:51:08.323Z,99.99
2022-12-26T04:52:08.301Z,99.99
2022-12-26T04:53:08.354Z,99.99
2022-12-26T04:54:08.367Z,99.99
2022-12-26T04:55:08.370Z,99.99
2022-12-26T04:56:08.287Z,99.99
2022-12-26T04:57:08.285Z,99.99
2022-12-26T04:58:08.299Z,99.99
2022-12-26T04:59:08.208Z,99.99
2022-12-26T05:00:08.211Z,99.99
2022-12-26T05:01:08.218Z,99.86
2022-12-26T05:02:08.341Z,99.99
2022-12-26T05:03:11.051Z,99.96
2022-12-26T05:04:09.166Z,99.99
2022-12-26T05:05:08.167Z,99.99
2022-12-26T05:06:08.293Z,99.99
2022-12-26T05:07:08.158Z,99.96
2022-12-26T05:08:08.150Z,99.66
2022-12-26T05:09:08.124Z,99.82
2022-12-26T05:10:08.086Z,99.30
2022-12-26T05:11:08.187Z,99.45
2022-12-26T05:12:08.141Z,98.94
2022-12-26T05:13:08.197Z,98.90
2022-12-26T05:14:08.165Z,99.25
2022-12-26T05:15:08.166Z,98.83
2022-12-26T05:16:08.189Z,98.94
2022-12-26T05:17:08.206Z,99.10
2022-12-26T05:18:08.161Z,98.90
2022-12-26T05:19:08.144Z,98.83
2022-12-26T05:20:08.126Z,98.83
2022-12-26T05:21:08.043Z,98.94
2022-12-26T05:22:08.164Z,99.15
2022-12-26T05:23:08.163Z,98.94
2022-12-26T05:24:08.110Z,98.94
2022-12-26T05:25:08.004Z,98.83
2022-12-26T05:26:08.104Z,98.94
2022-12-26T05:27:08.087Z,98.94
2022-12-26T05:28:08.155Z,98.94
2022-12-26T05:29:08.111Z,99.04
2022-12-26T05:30:08.080Z,99.04
2022-12-26T05:31:08.156Z,99.04
2022-12-26T05:32:08.067Z,99.04
2022-12-26T05:33:08.136Z,98.99
2022-12-26T05:34:08.063Z,99.25
2022-12-26T05:35:08.025Z,98.90
2022-12-26T05:36:08.041Z,99.04
2022-12-26T05:37:08.042Z,99.04
2022-12-26T05:38:08.008Z,98.79
2022-12-26T05:39:08.023Z,98.83
2022-12-26T05:40:08.001Z,99.35
2022-12-26T05:41:07.994Z,98.90
2022-12-26T05:42:07.968Z,99.41
2022-12-26T05:43:07.994Z,99.10
2022-12-26T05:44:07.960Z,98.79
2022-12-26T05:45:07.927Z,98.90
2022-12-26T05:46:07.897Z,98.69
2022-12-26T05:47:07.864Z,98.49
2022-12-26T05:48:07.845Z,98.49
2022-12-26T05:49:07.902Z,98.18
2022-12-26T05:50:07.910Z,98.53
2022-12-26T05:51:07.829Z,98.12
2022-12-26T05:52:07.858Z,98.33
2022-12-26T05:53:07.862Z,98.69
2022-12-26T05:54:07.826Z,98.43
2022-12-26T05:55:07.858Z,98.43
2022-12-26T05:56:07.844Z,98.18
2022-12-26T05:57:07.800Z,98.28
2022-12-26T05:58:07.791Z,98.49
2022-12-26T05:59:07.867Z,98.07
2022-12-26T06:00:07.907Z,97.31
2022-12-26T06:01:07.904Z,97.00
2022-12-26T06:02:08.017Z,96.75
2022-12-26T06:03:07.978Z,96.59
2022-12-26T06:04:07.859Z,96.45
2022-12-26T06:05:07.857Z,96.45
2022-12-26T06:06:08.064Z,96.34
2022-12-26T06:07:07.887Z,96.75
2022-12-26T06:08:07.750Z,96.75
2022-12-26T06:09:07.780Z,97.02
2022-12-26T06:10:07.790Z,97.42
2022-12-26T06:11:07.822Z,97.16
2022-12-26T06:12:07.802Z,97.63
2022-12-26T06:13:08.768Z,97.78
2022-12-26T06:14:07.750Z,97.78
2022-12-26T06:15:07.785Z,97.98
2022-12-26T06:16:07.840Z,97.78
2022-12-26T06:17:07.874Z,97.67
2022-12-26T06:18:07.755Z,97.88
2022-12-26T06:19:07.786Z,98.19
2022-12-26T06:20:07.739Z,97.98
2022-12-26T06:21:07.760Z,98.08
2022-12-26T06:22:28.713Z,98.08
2022-12-26T06:23:07.600Z,98.24
2022-12-26T06:24:07.769Z,97.92
2022-12-26T06:25:07.695Z,98.13
2022-12-26T06:26:07.667Z,98.33
2022-12-26T06:27:07.680Z,98.80
2022-12-26T06:28:07.721Z,98.54
2022-12-26T06:29:07.696Z,98.44
2022-12-26T06:30:07.660Z,99.05
2022-12-26T06:31:07.713Z,98.85
2022-12-26T06:32:07.649Z,98.85
2022-12-26T06:33:07.660Z,98.99
2022-12-26T06:34:07.614Z,99.26
2022-12-26T06:35:07.694Z,99.05
2022-12-26T06:36:07.608Z,98.95
2022-12-26T06:37:07.599Z,98.79
2022-12-26T06:38:07.595Z,99.05
2022-12-26T06:39:07.611Z,99.15
2022-12-26T06:40:07.620Z,98.95
2022-12-26T06:41:07.572Z,98.74
2022-12-26T06:42:07.634Z,98.54
2022-12-26T06:43:07.494Z,98.85
2022-12-26T06:44:10.502Z,98.54
2022-12-26T06:45:08.477Z,98.54
2022-12-26T06:46:07.484Z,97.92
2022-12-26T06:47:07.499Z,98.54
2022-12-26T06:48:07.449Z,98.13
2022-12-26T06:49:07.564Z,98.33
2022-12-26T06:50:07.497Z,98.70
2022-12-26T06:51:07.529Z,98.33
2022-12-26T06:52:07.516Z,97.92
2022-12-26T06:53:07.489Z,98.54
2022-12-26T06:54:07.491Z,98.70
2022-12-26T06:55:07.541Z,99.36
2022-12-26T06:56:07.485Z,98.65
2022-12-26T06:57:07.520Z,99.15
2022-12-26T06:58:07.491Z,99.05
2022-12-26T06:59:07.468Z,99.05
2022-12-26T07:00:07.505Z,99.15
2022-12-26T07:01:07.587Z,98.65
2022-12-26T07:02:07.545Z,98.95
2022-12-26T07:03:07.554Z,98.74
2022-12-26T07:04:07.420Z,98.74
2022-12-26T07:05:07.455Z,98.85
2022-12-26T07:06:07.648Z,99.05
2022-12-26T07:07:07.457Z,98.24
2022-12-26T07:08:08.297Z,98.65
2022-12-26T07:09:07.418Z,98.24
2022-12-26T07:10:07.387Z,98.44
2022-12-26T07:11:07.413Z,98.24
2022-12-26T07:12:07.389Z,98.24
2022-12-26T07:13:07.352Z,98.19
2022-12-26T07:14:07.339Z,98.44
2022-12-26T07:15:07.320Z,98.95
2022-12-26T07:16:07.335Z,98.74
2022-12-26T07:17:07.424Z,98.79
2022-12-26T07:18:07.326Z,99.15
2022-12-26T07:19:07.421Z,99.15
2022-12-26T07:20:07.293Z,98.69
2022-12-26T07:21:07.365Z,99.41
2022-12-26T07:22:07.342Z,98.99
2022-12-26T07:23:07.294Z,98.74
2022-12-26T07:24:07.283Z,99.51
2022-12-26T07:25:07.295Z,99.55
2022-12-26T07:26:07.311Z,98.69
2022-12-26T07:27:07.293Z,99.45
2022-12-26T07:28:07.383Z,99.51
2022-12-26T07:29:07.267Z,99.41
2022-12-26T07:30:07.299Z,99.51
2022-12-26T09:43:17.442Z,97.65
2022-12-26T09:44:10.159Z,97.75
2022-12-26T09:45:10.284Z,98.02
2022-12-26T09:46:10.253Z,97.86
2022-12-26T09:47:10.195Z,98.58
2022-12-26T09:48:16.163Z,98.07
2022-12-26T09:49:10.310Z,97.75
2022-12-26T09:50:10.357Z,98.47
2022-12-26T09:51:14.270Z,98.16
2022-12-26T09:52:10.196Z,98.07
2022-12-26T09:53:10.175Z,98.07
2022-12-26T10:28:52.332Z,97.86
2022-12-26T10:29:53.583Z,98.27
2022-12-26T10:30:53.616Z,97.75
2022-12-26T10:31:53.613Z,97.61
2022-12-26T10:32:53.558Z,97.34
2022-12-26T10:34:12.363Z,96.79
2022-12-26T10:34:53.512Z,97.24
2022-12-26T10:35:53.625Z,97.40
2022-12-26T10:36:53.518Z,96.99
2022-12-26T10:37:53.601Z,96.89
2022-12-26T10:38:53.503Z,96.58
2022-12-26T10:39:53.536Z,96.48
2022-12-26T10:57:24.173Z,96.33
2022-12-26T10:58:21.926Z,96.64
2022-12-26T11:20:10.646Z,96.33
2022-12-26T11:21:12.707Z,96.33
2022-12-26T11:22:11.881Z,96.74
2022-12-26T11:23:10.843Z,96.84
2022-12-26T11:24:11.867Z,97.00
2022-12-26T11:25:10.891Z,96.95
2022-12-26T11:26:10.866Z,96.80
2022-12-26T11:27:12.811Z,97.00
2022-12-26T11:28:12.131Z,96.91
2022-12-26T11:29:11.112Z,97.11
2022-12-26T11:30:10.822Z,96.59
2022-12-26T11:31:10.773Z,96.91
2022-12-26T11:32:10.699Z,97.00
2022-12-26T11:33:14.588Z,96.80
2022-12-26T11:34:11.723Z,97.00
2022-12-26T11:35:10.831Z,97.21
2022-12-26T11:36:10.704Z,97.00
2022-12-26T11:37:10.826Z,97.21
2022-12-26T11:38:10.666Z,97.31
2022-12-26T11:39:10.690Z,97.31
2022-12-26T11:40:10.738Z,97.21
2022-12-26T11:41:10.726Z,97.16
2022-12-26T11:42:10.697Z,97.06
2022-12-26T11:43:10.726Z,97.27
2022-12-26T11:44:10.728Z,96.75
2022-12-26T11:45:10.649Z,97.33
2022-12-26T11:46:10.715Z,97.02
2022-12-26T11:47:10.675Z,96.20
2022-12-26T11:48:10.914Z,96.14
2022-12-26T11:49:10.695Z,96.51
2022-12-26T11:50:10.692Z,96.10
2022-12-26T11:51:10.702Z,96.41
2022-12-26T11:52:10.656Z,96.51
2022-12-26T11:53:10.771Z,96.51
2022-12-26T11:54:10.614Z,96.71
2022-12-26T11:55:10.865Z,96.20
2022-12-26T11:56:10.613Z,96.15
2022-12-26T11:57:10.634Z,95.95
2022-12-26T11:58:11.332Z,95.85
2022-12-26T11:59:10.595Z,95.64
2022-12-26T12:00:10.596Z,95.54
2022-12-26T12:01:10.577Z,95.23
2022-12-26T12:02:10.635Z,95.19
2022-12-26T12:03:10.581Z,95.29
2022-12-26T12:05:18.318Z,94.68
2022-12-26T12:06:19.473Z,94.58
2022-12-26T12:07:19.583Z,94.73
2022-12-26T12:08:19.466Z,94.62
2022-12-26T12:09:19.503Z,94.82
2022-12-26T12:10:19.416Z,95.44
2022-12-26T12:11:19.437Z,95.34
2022-12-26T12:12:19.514Z,95.64
2022-12-26T12:13:19.639Z,94.82
2022-12-26T12:14:19.532Z,95.13
2022-12-26T12:15:19.525Z,94.82
2022-12-26T12:16:19.506Z,95.23
2022-12-26T12:17:19.513Z,94.62
2022-12-26T12:18:19.494Z,94.93
2022-12-26T12:19:19.476Z,95.13
2022-12-26T12:20:19.547Z,94.93
2022-12-26T12:21:19.476Z,94.73
2022-12-26T12:22:19.511Z,95.85
2022-12-26T12:23:19.453Z,96.05
2022-12-26T12:24:19.470Z,95.23
2022-12-26T12:25:19.603Z,95.44
2022-12-26T12:26:19.407Z,95.69
2022-12-26T12:27:19.411Z,95.95
2022-12-26T12:28:19.411Z,94.93
2022-12-26T12:29:19.436Z,95.03
2022-12-26T12:30:19.373Z,94.32
2022-12-26T12:31:19.520Z,94.93
2022-12-26T12:32:19.327Z,94.82
2022-12-26T12:33:19.412Z,94.42
2022-12-26T12:34:19.414Z,94.93
2022-12-26T12:35:19.336Z,94.89
2022-12-26T12:36:19.423Z,94.93
2022-12-26T12:37:19.418Z,94.42
2022-12-26T12:38:19.315Z,95.23
2022-12-26T12:39:19.353Z,94.73
2022-12-26T12:40:19.308Z,95.34
2022-12-26T12:41:19.304Z,94.73
2022-12-26T12:42:19.310Z,94.73
2022-12-26T12:43:19.334Z,95.13
2022-12-26T12:44:19.278Z,94.82
2022-12-26T12:45:19.350Z,95.69
2022-12-26T12:46:19.227Z,94.93
2022-12-26T12:47:19.464Z,94.93
2022-12-26T12:48:19.198Z,95.03
2022-12-26T12:49:19.212Z,94.32
2022-12-26T12:50:19.369Z,95.54
2022-12-26T12:51:19.250Z,94.52
2022-12-26T12:52:19.185Z,95.03
2022-12-26T12:53:19.280Z,95.54
2022-12-26T12:54:19.164Z,94.62
2022-12-26T12:55:19.188Z,95.13
2022-12-26T12:56:19.171Z,94.93
2022-12-26T12:57:19.178Z,94.21
2022-12-26T12:58:19.627Z,94.73
2022-12-26T12:59:19.064Z,94.32
2022-12-26T13:00:19.067Z,94.82
2022-12-26T13:01:19.087Z,95.18
2022-12-26T13:02:20.904Z,92.99
2022-12-26T13:03:20.092Z,93.70
2022-12-26T13:04:19.181Z,92.32
2022-12-26T13:05:19.110Z,92.52
2022-12-26T13:06:19.019Z,92.21
2022-12-26T13:07:19.112Z,90.58
2022-12-26T13:08:19.039Z,91.35
2022-12-26T13:09:19.077Z,90.37
2022-12-26T13:10:19.035Z,91.05
2022-12-26T13:11:19.101Z,90.99
2022-12-26T13:12:19.204Z,91.35
2022-12-26T13:13:18.987Z,91.46
2022-12-26T13:14:19.214Z,91.96
2022-12-26T13:15:19.084Z,91.46
2022-12-26T13:16:19.088Z,92.27
2022-12-26T13:17:19.033Z,91.66
2022-12-26T13:18:19.025Z,91.46
2022-12-26T13:19:19.013Z,92.33
2022-12-26T13:20:19.047Z,91.46
2022-12-26T13:21:18.953Z,92.64
2022-12-26T13:22:19.015Z,92.54
2022-12-26T13:23:19.036Z,92.64
2022-12-26T13:24:18.981Z,92.39
2022-12-26T13:25:19.029Z,92.19
2022-12-26T13:26:18.958Z,91.37
2022-12-26T13:27:19.052Z,91.37
2022-12-26T13:28:18.936Z,91.37
2022-12-26T13:29:18.993Z,91.98
2022-12-26T13:30:19.036Z,91.43
2022-12-26T13:31:19.123Z,90.29
2022-12-26T13:32:19.055Z,90.14
2022-12-26T13:33:18.878Z,91.57
2022-12-26T13:34:18.912Z,91.41
2022-12-26T13:35:18.946Z,91.88
2022-12-26T13:36:18.952Z,91.88
2022-12-26T13:37:18.885Z,91.88
2022-12-26T13:38:18.944Z,91.98
2022-12-26T13:39:18.962Z,91.88
2022-12-26T13:40:18.981Z,90.19
2022-12-26T13:41:19.458Z,89.47
2022-12-26T13:42:19.145Z,90.19
2022-12-26T13:43:18.854Z,90.29
2022-12-26T13:44:18.936Z,90.19
2022-12-26T13:45:18.925Z,89.98
2022-12-26T13:46:19.022Z,88.79
2022-12-26T13:47:18.980Z,88.96
2022-12-26T13:48:18.920Z,88.29
2022-12-26T13:49:18.784Z,87.84
2022-12-26T13:50:18.838Z,88.14
2022-12-26T13:51:18.769Z,89.17
2022-12-26T13:52:18.876Z,87.84
2022-12-26T13:53:18.740Z,88.35
2022-12-26T13:54:18.865Z,89.06
2022-12-26T13:55:18.744Z,86.35
2022-12-26T13:56:18.761Z,84.77
2022-12-26T13:57:18.743Z,86.20
2022-12-26T13:58:19.085Z,86.41
2022-12-26T13:59:18.662Z,86.41
2022-12-26T14:00:18.686Z,86.61
2022-12-26T14:01:18.773Z,87.02
2022-12-26T14:02:19.970Z,88.04
2022-12-26T14:03:21.344Z,88.04
2022-12-26T14:04:19.680Z,87.63
2022-12-26T14:05:18.659Z,86.30
2022-12-26T14:06:18.684Z,85.73
2022-12-26T14:07:18.725Z,86.44
2022-12-26T14:08:18.588Z,85.89
2022-12-26T14:09:18.859Z,86.65
2022-12-26T14:10:18.702Z,87.94
2022-12-26T14:11:18.740Z,87.88
2022-12-26T14:12:18.728Z,88.29
2022-12-26T14:13:18.729Z,87.02
2022-12-26T14:14:18.911Z,86.35
2022-12-26T14:15:18.770Z,87.06
2022-12-26T14:16:18.691Z,86.76
2022-12-26T14:17:18.758Z,86.55
2022-12-26T14:18:18.649Z,87.88
2022-12-26T14:19:18.631Z,87.26
2022-12-26T14:20:18.976Z,87.26
2022-12-26T14:21:18.639Z,86.85
2022-12-26T14:22:18.528Z,86.04
2022-12-26T14:23:18.727Z,87.06
2022-12-26T14:24:18.552Z,87.57
2022-12-26T14:25:18.628Z,85.97
2022-12-26T14:26:18.522Z,85.02
2022-12-26T14:27:18.543Z,83.62
2022-12-26T14:28:18.460Z,83.93
2022-12-26T14:29:18.573Z,86.85
2022-12-26T14:30:18.511Z,84.71
2022-12-26T14:31:18.799Z,84.71
2022-12-26T14:32:18.509Z,85.02
2022-12-26T14:33:18.510Z,85.22
2022-12-26T14:34:18.528Z,85.22
2022-12-26T14:35:18.519Z,84.81
2022-12-26T14:36:18.595Z,83.79
2022-12-26T14:37:18.607Z,84.50
2022-12-26T14:38:18.958Z,84.67
2022-12-26T14:39:18.581Z,86.10
2022-12-26T14:40:18.411Z,86.41
2022-12-26T14:41:18.755Z,84.67
2022-12-26T14:42:18.475Z,84.88
2022-12-26T14:43:18.455Z,84.71
2022-12-26T14:44:18.489Z,84.09
2022-12-26T14:45:18.454Z,85.32
2022-12-26T14:46:18.464Z,84.88
2022-12-26T14:47:18.719Z,84.91
2022-12-26T14:48:18.431Z,85.18
2022-12-26T14:49:18.440Z,85.73
2022-12-26T14:50:18.386Z,85.08
2022-12-26T14:51:18.432Z,85.12
2022-12-26T14:52:18.646Z,85.83
2022-12-26T14:53:18.419Z,85.12
2022-12-26T14:54:18.327Z,86.35
2022-12-26T14:55:18.200Z,86.85
2022-12-26T14:56:18.247Z,87.43
2022-12-26T14:57:18.232Z,86.35
2022-12-26T14:58:18.290Z,85.77
2022-12-26T14:59:19.240Z,86.59
2022-12-26T15:00:18.199Z,86.49
2022-12-26T15:01:18.709Z,87.71
2022-12-26T15:02:18.293Z,87.71
2022-12-26T15:03:18.585Z,87.82
2022-12-26T15:04:18.260Z,86.38
2022-12-26T15:05:18.204Z,86.43
2022-12-26T15:06:18.642Z,85.06
2022-12-26T15:07:20.774Z,85.88
2022-12-26T15:08:19.201Z,86.59
2022-12-26T15:09:18.387Z,86.90
2022-12-26T15:10:18.354Z,85.50
2022-12-26T15:11:18.296Z,84.07
2022-12-26T15:12:18.288Z,84.03
2022-12-26T15:13:18.330Z,83.83
2022-12-26T15:14:18.251Z,83.32
2022-12-26T15:15:18.167Z,83.52
2022-12-26T15:16:18.291Z,83.22
2022-12-26T15:17:18.220Z,83.52
2022-12-26T15:18:18.168Z,83.01
2022-12-26T15:19:18.471Z,83.22
2022-12-26T15:20:18.284Z,83.52
2022-12-26T15:21:18.159Z,83.42
2022-12-26T15:22:18.275Z,83.42
2022-12-26T15:23:18.366Z,83.42
2022-12-26T15:24:18.375Z,83.22
2022-12-26T15:25:20.324Z,83.05
2022-12-26T15:26:19.328Z,83.42
2022-12-26T15:27:18.183Z,82.75
2022-12-26T15:28:18.142Z,82.95
2022-12-26T15:29:18.133Z,82.09
2022-12-26T15:30:18.224Z,82.91
2022-12-26T15:31:18.163Z,83.22
2022-12-26T15:32:18.149Z,83.42
2022-12-26T15:33:18.371Z,83.46
2022-12-26T15:34:18.044Z,83.25
2022-12-26T15:35:18.048Z,83.56
2022-12-26T15:36:18.955Z,85.20
2022-12-26T15:37:18.074Z,84.89
2022-12-26T15:38:18.247Z,83.81
2022-12-26T15:39:18.044Z,83.60
2022-12-26T15:40:19.210Z,83.23
2022-12-26T15:41:18.517Z,83.95
2022-12-26T15:42:18.026Z,83.74
2022-12-26T15:43:18.047Z,85.01
2022-12-26T15:44:18.072Z,84.70
2022-12-26T15:45:20.560Z,84.80
2022-12-26T15:46:19.578Z,84.29
2022-12-26T15:47:17.977Z,83.58
2022-12-26T15:48:18.168Z,83.27
2022-12-26T15:49:18.540Z,85.22
2022-12-26T15:50:17.952Z,84.39
2022-12-26T15:51:17.954Z,85.25
2022-12-26T15:52:18.276Z,85.11
2022-12-26T15:53:18.407Z,85.22
2022-12-26T15:54:18.543Z,85.25
2022-12-26T15:55:18.291Z,84.23
2022-12-26T15:56:18.585Z,84.95
2022-12-26T15:57:18.758Z,83.58
2022-12-26T15:58:19.485Z,84.03
2022-12-26T15:59:18.449Z,83.92
2022-12-26T16:00:18.438Z,85.05
2022-12-26T16:01:18.543Z,83.45
2022-12-26T16:02:18.509Z,84.27
2022-12-26T16:03:18.759Z,87.04
2022-12-26T16:04:18.460Z,88.24
2022-12-26T16:05:18.288Z,88.14
2022-12-26T16:06:18.548Z,88.35
2022-12-26T16:07:18.448Z,88.70
2022-12-26T16:08:18.966Z,87.67
2022-12-26T16:09:18.131Z,87.98
2022-12-26T16:10:18.236Z,88.08
2022-12-26T16:11:18.057Z,87.98
2022-12-26T16:12:18.202Z,86.85
2022-12-26T16:13:17.907Z,87.16
2022-12-26T16:14:17.848Z,87.05
2022-12-26T16:15:17.796Z,88.39
2022-12-26T16:16:17.833Z,88.08
2022-12-26T16:17:17.763Z,88.29